sensor_id;sensor_type;location;lat;lon;timestamp;temperature;humidity
18091;DHT22;9172;49.948;9.208;2023-05-10T00:00:28;14.30;99.90
18091;DHT22;9172;49.948;9.208;2023-05-10T00:02:59;14.30;99.90
18091;DHT22;9172;49.948;9.208;2023-05-10T00:05:27;14.30;99.90
18091;DHT22;9172;49.948;9.208;2023-05-10T00:07:56;14.40;99.90
18091;DHT22;9172;49.948;9.208;2023-05-10T00:10:24;14.40;99.90
18091;DHT22;9172;49.948;9.208;2023-05-10T00:12:54;14.40;99.90
18091;DHT22;9172;49.948;9.208;2023-05-10T00:15:23;14.30;99.90
18091;DHT22;9172;49.948;9.208;2023-05-10T00:17:52;14.30;99.90
18091;DHT22;9172;49.948;9.208;2023-05-10T00:20:22;14.10;99.90
18091;DHT22;9172;49.948;9.208;2023-05-10T00:22:51;14.00;99.90
18091;DHT22;9172;49.948;9.208;2023-05-10T00:25:21;14.00;99.90
18091;DHT22;9172;49.948;9.208;2023-05-10T00:27:49;13.70;99.90
18091;DHT22;9172;49.948;9.208;2023-05-10T00:30:18;13.70;99.90
18091;DHT22;9172;49.948;9.208;2023-05-10T00:32:46;13.70;99.90
18091;DHT22;9172;49.948;9.208;2023-05-10T00:35:18;13.60;99.90
18091;DHT22;9172;49.948;9.208;2023-05-10T00:37:46;13.60;99.90
18091;DHT22;9172;49.948;9.208;2023-05-10T00:40:16;13.60;99.90
18091;DHT22;9172;49.948;9.208;2023-05-10T00:42:46;13.60;99.90
18091;DHT22;9172;49.948;9.208;2023-05-10T00:45:14;13.60;99.90
18091;DHT22;9172;49.948;9.208;2023-05-10T00:47:43;13.60;99.90
18091;DHT22;9172;49.948;9.208;2023-05-10T00:52:51;13.40;99.90
18091;DHT22;9172;49.948;9.208;2023-05-10T00:55:20;13.50;99.90
18091;DHT22;9172;49.948;9.208;2023-05-10T00:57:50;13.40;99.90
18091;DHT22;9172;49.948;9.208;2023-05-10T01:00:19;13.40;99.90
18091;DHT22;9172;49.948;9.208;2023-05-10T01:02:48;13.30;99.90
18091;DHT22;9172;49.948;9.208;2023-05-10T01:05:18;13.30;99.90
18091;DHT22;9172;49.948;9.208;2023-05-10T01:07:48;13.30;99.90
18091;DHT22;9172;49.948;9.208;2023-05-10T01:10:16;13.30;99.90
18091;DHT22;9172;49.948;9.208;2023-05-10T01:12:46;13.30;99.90
18091;DHT22;9172;49.948;9.208;2023-05-10T01:15:17;13.20;99.90
18091;DHT22;9172;49.948;9.208;2023-05-10T01:17:47;13.20;99.90
18091;DHT22;9172;49.948;9.208;2023-05-10T01:20:17;13.20;99.90
18091;DHT22;9172;49.948;9.208;2023-05-10T01:29:26;13.20;99.90
18091;DHT22;9172;49.948;9.208;2023-05-10T01:32:21;13.20;99.90
18091;DHT22;9172;49.948;9.208;2023-05-10T01:35:00;13.20;99.90
18091;DHT22;9172;49.948;9.208;2023-05-10T01:37:33;13.10;99.90
18091;DHT22;9172;49.948;9.208;2023-05-10T01:40:06;13.10;99.90
18091;DHT22;9172;49.948;9.208;2023-05-10T01:42:40;13.10;99.90
18091;DHT22;9172;49.948;9.208;2023-05-10T01:45:12;12.90;99.90
18091;DHT22;9172;49.948;9.208;2023-05-10T01:47:43;13.00;99.90
18091;DHT22;9172;49.948;9.208;2023-05-10T01:50:16;13.00;99.90
18091;DHT22;9172;49.948;9.208;2023-05-10T01:52:47;12.90;99.90
18091;DHT22;9172;49.948;9.208;2023-05-10T01:55:19;13.00;99.90
18091;DHT22;9172;49.948;9.208;2023-05-10T01:57:52;12.90;99.90
18091;DHT22;9172;49.948;9.208;2023-05-10T02:00:21;12.90;99.90
18091;DHT22;9172;49.948;9.208;2023-05-10T02:02:52;12.80;99.90
18091;DHT22;9172;49.948;9.208;2023-05-10T02:05:23;12.90;99.90
18091;DHT22;9172;49.948;9.208;2023-05-10T02:07:54;12.90;99.90
18091;DHT22;9172;49.948;9.208;2023-05-10T02:10:24;12.90;99.90
18091;DHT22;9172;49.948;9.208;2023-05-10T02:12:54;12.90;99.90
18091;DHT22;9172;49.948;9.208;2023-05-10T02:15:24;12.90;99.90
18091;DHT22;9172;49.948;9.208;2023-05-10T02:17:54;12.90;99.90
18091;DHT22;9172;49.948;9.208;2023-05-10T02:20:25;12.90;99.90
18091;DHT22;9172;49.948;9.208;2023-05-10T02:22:55;12.90;99.90
18091;DHT22;9172;49.948;9.208;2023-05-10T02:25:25;12.90;99.90
18091;DHT22;9172;49.948;9.208;2023-05-10T02:27:55;12.90;99.90
18091;DHT22;9172;49.948;9.208;2023-05-10T02:30:25;12.90;99.90
18091;DHT22;9172;49.948;9.208;2023-05-10T02:32:54;12.90;99.90
18091;DHT22;9172;49.948;9.208;2023-05-10T02:35:24;12.90;99.90
18091;DHT22;9172;49.948;9.208;2023-05-10T02:37:54;12.80;99.90
18091;DHT22;9172;49.948;9.208;2023-05-10T02:40:24;12.90;99.90
18091;DHT22;9172;49.948;9.208;2023-05-10T02:42:56;12.90;99.90
18091;DHT22;9172;49.948;9.208;2023-05-10T02:45:29;12.90;99.90
18091;DHT22;9172;49.948;9.208;2023-05-10T02:47:58;12.90;99.90
18091;DHT22;9172;49.948;9.208;2023-05-10T02:50:27;12.90;99.90
18091;DHT22;9172;49.948;9.208;2023-05-10T02:53:00;12.90;99.90
18091;DHT22;9172;49.948;9.208;2023-05-10T02:55:32;13.00;99.90
18091;DHT22;9172;49.948;9.208;2023-05-10T02:58:02;12.90;99.90
18091;DHT22;9172;49.948;9.208;2023-05-10T03:00:31;12.90;99.90
18091;DHT22;9172;49.948;9.208;2023-05-10T03:05:37;12.90;99.90
18091;DHT22;9172;49.948;9.208;2023-05-10T03:08:06;12.90;99.90
18091;DHT22;9172;49.948;9.208;2023-05-10T03:10:55;12.90;99.90
18091;DHT22;9172;49.948;9.208;2023-05-10T03:13:29;12.80;99.90
18091;DHT22;9172;49.948;9.208;2023-05-10T03:18:41;12.70;99.90
18091;DHT22;9172;49.948;9.208;2023-05-10T03:21:11;12.80;99.90
18091;DHT22;9172;49.948;9.208;2023-05-10T03:23:45;12.80;99.90
18091;DHT22;9172;49.948;9.208;2023-05-10T03:26:17;12.80;99.90
18091;DHT22;9172;49.948;9.208;2023-05-10T03:28:49;12.80;99.90
18091;DHT22;9172;49.948;9.208;2023-05-10T03:31:20;12.80;99.90
18091;DHT22;9172;49.948;9.208;2023-05-10T03:33:49;12.80;99.90
18091;DHT22;9172;49.948;9.208;2023-05-10T03:36:18;12.80;99.90
18091;DHT22;9172;49.948;9.208;2023-05-10T03:38:48;12.80;99.90
18091;DHT22;9172;49.948;9.208;2023-05-10T03:41:16;12.80;99.90
18091;DHT22;9172;49.948;9.208;2023-05-10T03:43:45;12.80;99.90
18091;DHT22;9172;49.948;9.208;2023-05-10T03:46:14;12.80;99.90
18091;DHT22;9172;49.948;9.208;2023-05-10T03:48:43;12.80;99.90
18091;DHT22;9172;49.948;9.208;2023-05-10T03:51:13;12.80;99.90
18091;DHT22;9172;49.948;9.208;2023-05-10T03:53:42;12.80;99.90
18091;DHT22;9172;49.948;9.208;2023-05-10T03:56:11;12.80;99.90
18091;DHT22;9172;49.948;9.208;2023-05-10T03:58:39;12.90;99.90
18091;DHT22;9172;49.948;9.208;2023-05-10T04:01:09;12.90;99.90
18091;DHT22;9172;49.948;9.208;2023-05-10T04:03:39;12.90;99.90
18091;DHT22;9172;49.948;9.208;2023-05-10T04:06:09;12.90;99.90
18091;DHT22;9172;49.948;9.208;2023-05-10T04:08:39;12.80;99.90
18091;DHT22;9172;49.948;9.208;2023-05-10T04:11:10;12.80;99.90
18091;DHT22;9172;49.948;9.208;2023-05-10T04:13:39;12.90;99.90
18091;DHT22;9172;49.948;9.208;2023-05-10T04:16:08;12.80;99.90
18091;DHT22;9172;49.948;9.208;2023-05-10T04:18:37;12.80;99.90
18091;DHT22;9172;49.948;9.208;2023-05-10T04:21:12;12.90;99.90
18091;DHT22;9172;49.948;9.208;2023-05-10T04:23:41;12.90;99.90
18091;DHT22;9172;49.948;9.208;2023-05-10T04:26:10;12.90;99.90
18091;DHT22;9172;49.948;9.208;2023-05-10T04:28:39;12.90;99.90
18091;DHT22;9172;49.948;9.208;2023-05-10T04:31:09;12.90;99.90
18091;DHT22;9172;49.948;9.208;2023-05-10T04:33:37;12.90;99.90
18091;DHT22;9172;49.948;9.208;2023-05-10T04:36:07;12.90;99.90
18091;DHT22;9172;49.948;9.208;2023-05-10T04:38:35;12.80;99.90
18091;DHT22;9172;49.948;9.208;2023-05-10T04:41:08;12.80;99.90
18091;DHT22;9172;49.948;9.208;2023-05-10T04:43:38;12.80;99.90
18091;DHT22;9172;49.948;9.208;2023-05-10T04:46:08;12.80;99.90
18091;DHT22;9172;49.948;9.208;2023-05-10T04:48:38;12.80;99.90
18091;DHT22;9172;49.948;9.208;2023-05-10T04:51:06;12.80;99.90
18091;DHT22;9172;49.948;9.208;2023-05-10T04:53:36;12.80;99.90
18091;DHT22;9172;49.948;9.208;2023-05-10T04:56:07;12.80;99.90
18091;DHT22;9172;49.948;9.208;2023-05-10T04:58:36;12.80;99.90
18091;DHT22;9172;49.948;9.208;2023-05-10T05:01:08;12.80;99.90
18091;DHT22;9172;49.948;9.208;2023-05-10T05:03:37;12.90;99.90
18091;DHT22;9172;49.948;9.208;2023-05-10T05:06:07;12.90;99.90
18091;DHT22;9172;49.948;9.208;2023-05-10T05:08:35;12.90;99.90
18091;DHT22;9172;49.948;9.208;2023-05-10T05:11:05;13.00;99.90
18091;DHT22;9172;49.948;9.208;2023-05-10T05:13:34;12.90;99.90
18091;DHT22;9172;49.948;9.208;2023-05-10T05:16:03;13.00;99.90
18091;DHT22;9172;49.948;9.208;2023-05-10T05:18:32;13.00;99.90
18091;DHT22;9172;49.948;9.208;2023-05-10T05:21:01;13.00;99.90
18091;DHT22;9172;49.948;9.208;2023-05-10T05:23:30;13.00;99.90
18091;DHT22;9172;49.948;9.208;2023-05-10T05:26:01;12.90;99.90
18091;DHT22;9172;49.948;9.208;2023-05-10T05:28:30;12.90;99.90
18091;DHT22;9172;49.948;9.208;2023-05-10T05:45:16;13.00;99.90
18091;DHT22;9172;49.948;9.208;2023-05-10T05:50:27;13.00;99.90
18091;DHT22;9172;49.948;9.208;2023-05-10T05:52:58;13.00;99.90
18091;DHT22;9172;49.948;9.208;2023-05-10T05:55:27;13.00;99.90
18091;DHT22;9172;49.948;9.208;2023-05-10T05:57:57;13.00;99.90
18091;DHT22;9172;49.948;9.208;2023-05-10T06:03:04;13.00;99.90
18091;DHT22;9172;49.948;9.208;2023-05-10T06:05:34;13.00;99.90
18091;DHT22;9172;49.948;9.208;2023-05-10T06:08:02;12.90;99.90
18091;DHT22;9172;49.948;9.208;2023-05-10T06:10:32;12.90;99.90
18091;DHT22;9172;49.948;9.208;2023-05-10T06:13:02;12.90;99.90
18091;DHT22;9172;49.948;9.208;2023-05-10T06:15:31;12.90;99.90
18091;DHT22;9172;49.948;9.208;2023-05-10T06:18:00;12.90;99.90
18091;DHT22;9172;49.948;9.208;2023-05-10T06:20:29;12.90;99.90
18091;DHT22;9172;49.948;9.208;2023-05-10T06:22:58;12.90;99.90
18091;DHT22;9172;49.948;9.208;2023-05-10T06:25:27;13.00;99.90
18091;DHT22;9172;49.948;9.208;2023-05-10T06:27:55;13.00;99.90
18091;DHT22;9172;49.948;9.208;2023-05-10T06:30:26;12.90;99.90
18091;DHT22;9172;49.948;9.208;2023-05-10T06:32:55;12.90;99.90
18091;DHT22;9172;49.948;9.208;2023-05-10T06:35:24;12.90;99.90
18091;DHT22;9172;49.948;9.208;2023-05-10T06:37:54;12.90;99.90
18091;DHT22;9172;49.948;9.208;2023-05-10T06:40:24;12.90;99.90
18091;DHT22;9172;49.948;9.208;2023-05-10T06:42:53;12.90;99.90
18091;DHT22;9172;49.948;9.208;2023-05-10T06:45:21;12.90;99.90
18091;DHT22;9172;49.948;9.208;2023-05-10T06:47:51;12.90;99.90
18091;DHT22;9172;49.948;9.208;2023-05-10T06:50:20;12.90;99.90
18091;DHT22;9172;49.948;9.208;2023-05-10T06:52:48;12.90;99.90
18091;DHT22;9172;49.948;9.208;2023-05-10T06:55:17;12.90;99.90
18091;DHT22;9172;49.948;9.208;2023-05-10T06:57:47;12.90;99.90
18091;DHT22;9172;49.948;9.208;2023-05-10T07:00:17;12.90;99.90
18091;DHT22;9172;49.948;9.208;2023-05-10T07:02:46;12.90;99.90
18091;DHT22;9172;49.948;9.208;2023-05-10T07:05:15;12.90;99.90
18091;DHT22;9172;49.948;9.208;2023-05-10T07:07:45;12.90;99.90
18091;DHT22;9172;49.948;9.208;2023-05-10T07:10:14;12.90;99.90
18091;DHT22;9172;49.948;9.208;2023-05-10T07:12:43;12.90;99.90
18091;DHT22;9172;49.948;9.208;2023-05-10T07:15:12;13.00;99.90
18091;DHT22;9172;49.948;9.208;2023-05-10T07:17:40;13.00;99.90
18091;DHT22;9172;49.948;9.208;2023-05-10T07:20:10;13.10;99.90
18091;DHT22;9172;49.948;9.208;2023-05-10T07:22:41;13.00;99.90
18091;DHT22;9172;49.948;9.208;2023-05-10T07:25:10;13.10;99.90
18091;DHT22;9172;49.948;9.208;2023-05-10T07:27:39;13.10;99.90
18091;DHT22;9172;49.948;9.208;2023-05-10T07:30:10;13.20;99.90
18091;DHT22;9172;49.948;9.208;2023-05-10T07:32:39;13.20;99.90
18091;DHT22;9172;49.948;9.208;2023-05-10T07:35:10;13.20;99.90
18091;DHT22;9172;49.948;9.208;2023-05-10T07:37:38;13.10;99.90
18091;DHT22;9172;49.948;9.208;2023-05-10T07:40:09;13.10;99.90
18091;DHT22;9172;49.948;9.208;2023-05-10T07:42:39;13.20;99.90
18091;DHT22;9172;49.948;9.208;2023-05-10T07:45:10;13.20;99.90
18091;DHT22;9172;49.948;9.208;2023-05-10T07:47:39;13.30;99.90
18091;DHT22;9172;49.948;9.208;2023-05-10T07:50:09;13.20;99.90
18091;DHT22;9172;49.948;9.208;2023-05-10T07:52:38;13.30;99.90
18091;DHT22;9172;49.948;9.208;2023-05-10T07:55:09;13.30;99.90
18091;DHT22;9172;49.948;9.208;2023-05-10T07:57:39;13.30;99.90
18091;DHT22;9172;49.948;9.208;2023-05-10T08:00:11;13.30;99.90
18091;DHT22;9172;49.948;9.208;2023-05-10T08:02:40;13.30;99.90
18091;DHT22;9172;49.948;9.208;2023-05-10T08:05:09;13.30;99.90
18091;DHT22;9172;49.948;9.208;2023-05-10T08:07:38;13.40;99.90
18091;DHT22;9172;49.948;9.208;2023-05-10T08:10:09;13.40;99.90
18091;DHT22;9172;49.948;9.208;2023-05-10T08:12:39;13.50;99.90
18091;DHT22;9172;49.948;9.208;2023-05-10T08:15:10;13.40;99.90
18091;DHT22;9172;49.948;9.208;2023-05-10T08:17:39;13.50;99.90
18091;DHT22;9172;49.948;9.208;2023-05-10T08:20:09;13.50;99.90
18091;DHT22;9172;49.948;9.208;2023-05-10T08:22:40;13.50;99.90
18091;DHT22;9172;49.948;9.208;2023-05-10T08:25:10;13.50;99.90
18091;DHT22;9172;49.948;9.208;2023-05-10T08:27:38;13.40;99.90
18091;DHT22;9172;49.948;9.208;2023-05-10T08:30:12;13.60;99.90
18091;DHT22;9172;49.948;9.208;2023-05-10T08:32:41;13.70;99.90
18091;DHT22;9172;49.948;9.208;2023-05-10T08:35:11;13.70;99.90
18091;DHT22;9172;49.948;9.208;2023-05-10T08:37:40;13.80;99.90
18091;DHT22;9172;49.948;9.208;2023-05-10T08:40:11;13.80;99.90
18091;DHT22;9172;49.948;9.208;2023-05-10T08:42:43;13.80;99.90
18091;DHT22;9172;49.948;9.208;2023-05-10T08:45:12;13.80;99.90
18091;DHT22;9172;49.948;9.208;2023-05-10T08:47:42;13.80;99.90
18091;DHT22;9172;49.948;9.208;2023-05-10T08:50:11;13.90;99.90
18091;DHT22;9172;49.948;9.208;2023-05-10T08:52:41;13.90;99.90
18091;DHT22;9172;49.948;9.208;2023-05-10T08:55:11;14.00;99.90
18091;DHT22;9172;49.948;9.208;2023-05-10T08:57:39;14.00;99.90
18091;DHT22;9172;49.948;9.208;2023-05-10T09:00:11;14.10;99.90
18091;DHT22;9172;49.948;9.208;2023-05-10T09:02:42;14.10;99.90
18091;DHT22;9172;49.948;9.208;2023-05-10T09:05:11;14.00;99.90
18091;DHT22;9172;49.948;9.208;2023-05-10T09:07:40;14.10;99.90
18091;DHT22;9172;49.948;9.208;2023-05-10T09:10:09;14.10;99.90
18091;DHT22;9172;49.948;9.208;2023-05-10T09:12:40;14.20;99.90
18091;DHT22;9172;49.948;9.208;2023-05-10T09:15:11;14.20;99.90
18091;DHT22;9172;49.948;9.208;2023-05-10T09:17:43;14.30;99.90
18091;DHT22;9172;49.948;9.208;2023-05-10T09:20:12;14.40;99.90
18091;DHT22;9172;49.948;9.208;2023-05-10T09:22:41;14.50;99.90
18091;DHT22;9172;49.948;9.208;2023-05-10T09:25:12;14.60;99.90
18091;DHT22;9172;49.948;9.208;2023-05-10T09:27:44;14.70;99.90
18091;DHT22;9172;49.948;9.208;2023-05-10T09:30:16;14.70;99.90
18091;DHT22;9172;49.948;9.208;2023-05-10T09:32:47;14.80;99.90
18091;DHT22;9172;49.948;9.208;2023-05-10T09:35:17;14.80;99.90
18091;DHT22;9172;49.948;9.208;2023-05-10T09:37:48;14.80;99.90
18091;DHT22;9172;49.948;9.208;2023-05-10T09:40:18;14.80;99.90
18091;DHT22;9172;49.948;9.208;2023-05-10T09:42:53;14.90;99.90
18091;DHT22;9172;49.948;9.208;2023-05-10T09:45:23;14.90;99.90
18091;DHT22;9172;49.948;9.208;2023-05-10T09:47:52;14.80;99.90
18091;DHT22;9172;49.948;9.208;2023-05-10T09:50:21;14.80;99.90
18091;DHT22;9172;49.948;9.208;2023-05-10T09:52:51;14.80;99.90
18091;DHT22;9172;49.948;9.208;2023-05-10T09:55:22;14.80;99.90
18091;DHT22;9172;49.948;9.208;2023-05-10T09:57:58;15.00;99.90
18091;DHT22;9172;49.948;9.208;2023-05-10T10:00:28;15.10;99.90
18091;DHT22;9172;49.948;9.208;2023-05-10T10:03:00;15.00;99.90
18091;DHT22;9172;49.948;9.208;2023-05-10T10:05:31;15.00;99.90
18091;DHT22;9172;49.948;9.208;2023-05-10T10:08:01;15.00;99.90
18091;DHT22;9172;49.948;9.208;2023-05-10T10:10:32;15.00;99.90
18091;DHT22;9172;49.948;9.208;2023-05-10T10:13:02;14.90;99.90
18091;DHT22;9172;49.948;9.208;2023-05-10T10:15:33;14.90;99.90
18091;DHT22;9172;49.948;9.208;2023-05-10T10:18:02;15.00;99.90
18091;DHT22;9172;49.948;9.208;2023-05-10T10:20:32;15.00;99.90
18091;DHT22;9172;49.948;9.208;2023-05-10T10:23:01;15.10;99.90
18091;DHT22;9172;49.948;9.208;2023-05-10T10:25:31;15.10;99.90
18091;DHT22;9172;49.948;9.208;2023-05-10T10:28:07;15.20;99.90
18091;DHT22;9172;49.948;9.208;2023-05-10T10:30:40;15.20;99.90
18091;DHT22;9172;49.948;9.208;2023-05-10T10:36:15;15.30;99.90
18091;DHT22;9172;49.948;9.208;2023-05-10T10:38:58;15.50;99.90
18091;DHT22;9172;49.948;9.208;2023-05-10T10:41:33;15.70;99.90
18091;DHT22;9172;49.948;9.208;2023-05-10T10:44:30;15.70;99.90
18091;DHT22;9172;49.948;9.208;2023-05-10T10:50:05;15.80;99.90
18091;DHT22;9172;49.948;9.208;2023-05-10T10:52:35;15.70;99.90
18091;DHT22;9172;49.948;9.208;2023-05-10T10:55:06;15.70;99.90
18091;DHT22;9172;49.948;9.208;2023-05-10T10:57:45;15.70;99.90
18091;DHT22;9172;49.948;9.208;2023-05-10T11:00:23;15.70;99.90
18091;DHT22;9172;49.948;9.208;2023-05-10T11:02:54;15.70;99.90
18091;DHT22;9172;49.948;9.208;2023-05-10T11:05:49;15.60;99.90
18091;DHT22;9172;49.948;9.208;2023-05-10T11:08:26;15.60;99.90
18091;DHT22;9172;49.948;9.208;2023-05-10T11:11:04;15.40;99.90
18091;DHT22;9172;49.948;9.208;2023-05-10T11:13:37;15.10;99.90
18091;DHT22;9172;49.948;9.208;2023-05-10T11:16:13;14.80;99.90
18091;DHT22;9172;49.948;9.208;2023-05-10T11:18:53;14.70;99.90
18091;DHT22;9172;49.948;9.208;2023-05-10T11:21:22;14.60;99.90
18091;DHT22;9172;49.948;9.208;2023-05-10T11:23:52;14.60;99.90
18091;DHT22;9172;49.948;9.208;2023-05-10T11:26:24;14.50;99.90
18091;DHT22;9172;49.948;9.208;2023-05-10T11:28:55;14.50;99.90
18091;DHT22;9172;49.948;9.208;2023-05-10T11:31:25;14.50;99.90
18091;DHT22;9172;49.948;9.208;2023-05-10T11:33:56;14.60;99.90
18091;DHT22;9172;49.948;9.208;2023-05-10T11:36:27;14.60;99.90
18091;DHT22;9172;49.948;9.208;2023-05-10T11:38:56;14.80;99.90
18091;DHT22;9172;49.948;9.208;2023-05-10T11:41:27;14.80;99.90
18091;DHT22;9172;49.948;9.208;2023-05-10T11:43:58;14.90;99.90
18091;DHT22;9172;49.948;9.208;2023-05-10T11:46:27;14.90;99.90
18091;DHT22;9172;49.948;9.208;2023-05-10T11:48:58;14.90;99.90
18091;DHT22;9172;49.948;9.208;2023-05-10T11:51:32;14.90;99.90
18091;DHT22;9172;49.948;9.208;2023-05-10T11:54:00;14.90;99.90
18091;DHT22;9172;49.948;9.208;2023-05-10T11:56:31;15.00;99.90
18091;DHT22;9172;49.948;9.208;2023-05-10T11:59:01;15.00;99.90
18091;DHT22;9172;49.948;9.208;2023-05-10T12:01:31;15.10;99.90
18091;DHT22;9172;49.948;9.208;2023-05-10T12:04:01;15.00;99.90
18091;DHT22;9172;49.948;9.208;2023-05-10T12:06:32;15.10;99.90
18091;DHT22;9172;49.948;9.208;2023-05-10T12:09:05;15.10;99.90
18091;DHT22;9172;49.948;9.208;2023-05-10T12:11:38;15.10;99.90
18091;DHT22;9172;49.948;9.208;2023-05-10T12:14:09;15.10;99.90
18091;DHT22;9172;49.948;9.208;2023-05-10T12:16:37;15.10;99.90
18091;DHT22;9172;49.948;9.208;2023-05-10T12:19:08;15.00;99.90
18091;DHT22;9172;49.948;9.208;2023-05-10T12:21:37;15.10;99.90
18091;DHT22;9172;49.948;9.208;2023-05-10T12:24:08;15.10;99.90
18091;DHT22;9172;49.948;9.208;2023-05-10T12:26:39;15.10;99.90
18091;DHT22;9172;49.948;9.208;2023-05-10T12:29:15;15.10;99.90
18091;DHT22;9172;49.948;9.208;2023-05-10T12:31:52;15.10;99.90
18091;DHT22;9172;49.948;9.208;2023-05-10T12:34:26;15.10;99.90
18091;DHT22;9172;49.948;9.208;2023-05-10T12:36:55;15.20;99.90
18091;DHT22;9172;49.948;9.208;2023-05-10T12:39:24;15.20;99.90
18091;DHT22;9172;49.948;9.208;2023-05-10T12:41:52;15.20;99.90
18091;DHT22;9172;49.948;9.208;2023-05-10T12:44:21;15.20;99.90
18091;DHT22;9172;49.948;9.208;2023-05-10T12:46:52;15.20;99.90
18091;DHT22;9172;49.948;9.208;2023-05-10T12:49:21;15.20;99.90
18091;DHT22;9172;49.948;9.208;2023-05-10T12:51:50;15.30;99.90
18091;DHT22;9172;49.948;9.208;2023-05-10T12:54:20;15.40;99.90
18091;DHT22;9172;49.948;9.208;2023-05-10T12:56:49;15.40;99.90
18091;DHT22;9172;49.948;9.208;2023-05-10T12:59:19;15.40;99.90
18091;DHT22;9172;49.948;9.208;2023-05-10T13:01:48;15.50;99.90
18091;DHT22;9172;49.948;9.208;2023-05-10T13:04:18;15.50;99.90
18091;DHT22;9172;49.948;9.208;2023-05-10T13:06:48;15.60;99.90
18091;DHT22;9172;49.948;9.208;2023-05-10T13:09:18;15.70;99.90
18091;DHT22;9172;49.948;9.208;2023-05-10T13:11:49;15.80;99.90
18091;DHT22;9172;49.948;9.208;2023-05-10T13:14:18;16.00;99.90
18091;DHT22;9172;49.948;9.208;2023-05-10T13:16:47;16.00;99.90
18091;DHT22;9172;49.948;9.208;2023-05-10T13:19:16;16.10;99.90
18091;DHT22;9172;49.948;9.208;2023-05-10T13:21:46;16.30;99.90
18091;DHT22;9172;49.948;9.208;2023-05-10T13:24:15;16.30;99.90
18091;DHT22;9172;49.948;9.208;2023-05-10T13:26:44;16.40;99.90
18091;DHT22;9172;49.948;9.208;2023-05-10T13:29:14;16.50;99.90
18091;DHT22;9172;49.948;9.208;2023-05-10T13:31:44;16.60;99.90
18091;DHT22;9172;49.948;9.208;2023-05-10T13:34:14;16.60;99.90
18091;DHT22;9172;49.948;9.208;2023-05-10T13:36:42;16.60;99.90
18091;DHT22;9172;49.948;9.208;2023-05-10T13:39:12;16.60;99.90
18091;DHT22;9172;49.948;9.208;2023-05-10T13:41:42;16.60;99.90
18091;DHT22;9172;49.948;9.208;2023-05-10T13:44:12;16.60;99.90
18091;DHT22;9172;49.948;9.208;2023-05-10T13:46:41;16.70;99.90
18091;DHT22;9172;49.948;9.208;2023-05-10T13:49:11;16.70;99.90
18091;DHT22;9172;49.948;9.208;2023-05-10T13:51:41;16.60;99.90
18091;DHT22;9172;49.948;9.208;2023-05-10T13:54:11;16.60;99.90
18091;DHT22;9172;49.948;9.208;2023-05-10T13:56:41;16.50;99.90
18091;DHT22;9172;49.948;9.208;2023-05-10T13:59:12;16.40;99.90
18091;DHT22;9172;49.948;9.208;2023-05-10T14:01:41;16.40;99.90
18091;DHT22;9172;49.948;9.208;2023-05-10T14:04:11;16.40;99.90
18091;DHT22;9172;49.948;9.208;2023-05-10T14:06:40;16.50;99.90
18091;DHT22;9172;49.948;9.208;2023-05-10T14:09:08;16.60;99.90
18091;DHT22;9172;49.948;9.208;2023-05-10T14:11:37;16.60;99.90
18091;DHT22;9172;49.948;9.208;2023-05-10T14:14:08;16.60;99.90
18091;DHT22;9172;49.948;9.208;2023-05-10T14:16:38;16.70;99.90
18091;DHT22;9172;49.948;9.208;2023-05-10T14:19:08;16.70;99.90
18091;DHT22;9172;49.948;9.208;2023-05-10T14:21:37;16.80;99.90
18091;DHT22;9172;49.948;9.208;2023-05-10T14:24:06;16.80;99.90
18091;DHT22;9172;49.948;9.208;2023-05-10T14:26:35;16.90;99.90
18091;DHT22;9172;49.948;9.208;2023-05-10T14:29:04;16.90;99.90
18091;DHT22;9172;49.948;9.208;2023-05-10T14:31:33;16.90;99.90
18091;DHT22;9172;49.948;9.208;2023-05-10T14:34:02;16.90;99.90
18091;DHT22;9172;49.948;9.208;2023-05-10T14:36:30;16.80;99.90
18091;DHT22;9172;49.948;9.208;2023-05-10T14:38:59;16.80;99.90
18091;DHT22;9172;49.948;9.208;2023-05-10T14:41:28;16.80;99.90
18091;DHT22;9172;49.948;9.208;2023-05-10T14:43:57;16.80;99.90
18091;DHT22;9172;49.948;9.208;2023-05-10T14:46:27;16.80;99.90
18091;DHT22;9172;49.948;9.208;2023-05-10T14:48:57;16.60;99.90
18091;DHT22;9172;49.948;9.208;2023-05-10T14:51:25;16.60;99.90
18091;DHT22;9172;49.948;9.208;2023-05-10T14:53:55;16.70;99.90
18091;DHT22;9172;49.948;9.208;2023-05-10T14:56:25;16.60;99.90
18091;DHT22;9172;49.948;9.208;2023-05-10T14:58:55;16.60;99.90
18091;DHT22;9172;49.948;9.208;2023-05-10T15:01:24;16.60;99.90
18091;DHT22;9172;49.948;9.208;2023-05-10T15:03:56;16.60;99.90
18091;DHT22;9172;49.948;9.208;2023-05-10T15:06:31;16.50;99.90
18091;DHT22;9172;49.948;9.208;2023-05-10T15:09:00;16.50;99.90
18091;DHT22;9172;49.948;9.208;2023-05-10T15:11:28;16.50;99.90
18091;DHT22;9172;49.948;9.208;2023-05-10T15:13:57;16.50;99.90
18091;DHT22;9172;49.948;9.208;2023-05-10T15:16:26;16.50;99.90
18091;DHT22;9172;49.948;9.208;2023-05-10T15:18:54;16.50;99.90
18091;DHT22;9172;49.948;9.208;2023-05-10T15:21:24;16.50;99.90
18091;DHT22;9172;49.948;9.208;2023-05-10T15:23:53;16.50;99.90
18091;DHT22;9172;49.948;9.208;2023-05-10T15:26:23;16.40;99.90
18091;DHT22;9172;49.948;9.208;2023-05-10T15:28:53;16.40;99.90
18091;DHT22;9172;49.948;9.208;2023-05-10T15:31:22;16.50;99.90
18091;DHT22;9172;49.948;9.208;2023-05-10T15:33:52;16.50;99.90
18091;DHT22;9172;49.948;9.208;2023-05-10T15:36:23;16.60;99.90
18091;DHT22;9172;49.948;9.208;2023-05-10T15:38:53;16.60;99.90
18091;DHT22;9172;49.948;9.208;2023-05-10T15:41:22;16.70;99.90
18091;DHT22;9172;49.948;9.208;2023-05-10T15:43:50;16.80;99.90
18091;DHT22;9172;49.948;9.208;2023-05-10T15:46:19;16.80;99.90
18091;DHT22;9172;49.948;9.208;2023-05-10T15:48:47;16.90;99.90
18091;DHT22;9172;49.948;9.208;2023-05-10T15:51:18;17.00;99.90
18091;DHT22;9172;49.948;9.208;2023-05-10T15:53:47;17.00;99.90
18091;DHT22;9172;49.948;9.208;2023-05-10T15:56:16;17.00;99.90
18091;DHT22;9172;49.948;9.208;2023-05-10T15:58:46;17.00;99.90
18091;DHT22;9172;49.948;9.208;2023-05-10T16:01:15;16.90;99.90
18091;DHT22;9172;49.948;9.208;2023-05-10T16:03:45;16.90;99.90
18091;DHT22;9172;49.948;9.208;2023-05-10T16:06:14;16.80;99.90
18091;DHT22;9172;49.948;9.208;2023-05-10T16:08:43;16.70;99.90
18091;DHT22;9172;49.948;9.208;2023-05-10T16:11:12;16.70;99.90
18091;DHT22;9172;49.948;9.208;2023-05-10T16:13:41;16.70;99.90
18091;DHT22;9172;49.948;9.208;2023-05-10T16:16:09;16.80;99.90
18091;DHT22;9172;49.948;9.208;2023-05-10T16:18:38;16.70;99.90
18091;DHT22;9172;49.948;9.208;2023-05-10T16:21:06;16.80;99.90
18091;DHT22;9172;49.948;9.208;2023-05-10T16:23:36;16.70;99.90
18091;DHT22;9172;49.948;9.208;2023-05-10T16:26:04;16.70;99.90
18091;DHT22;9172;49.948;9.208;2023-05-10T16:28:33;16.80;99.90
18091;DHT22;9172;49.948;9.208;2023-05-10T16:31:02;16.70;99.90
18091;DHT22;9172;49.948;9.208;2023-05-10T16:33:31;16.70;99.90
18091;DHT22;9172;49.948;9.208;2023-05-10T16:36:01;16.70;99.90
18091;DHT22;9172;49.948;9.208;2023-05-10T16:38:29;16.70;99.90
18091;DHT22;9172;49.948;9.208;2023-05-10T16:41:01;16.70;99.90
18091;DHT22;9172;49.948;9.208;2023-05-10T16:43:30;16.70;99.90